createdAt,value
2022-07-30T00:00:25.941Z,97343.56
2022-07-30T00:03:27.777Z,97349.09
2022-07-30T00:06:29.302Z,97343.00
2022-07-30T00:09:33.299Z,97343.19
2022-07-30T00:12:36.074Z,97350.75
2022-07-30T00:15:37.683Z,97357.13
2022-07-30T00:18:39.212Z,97352.66
2022-07-30T00:21:42.153Z,97353.38
2022-07-30T00:24:44.342Z,97344.75
2022-07-30T00:27:45.912Z,97342.56
2022-07-30T00:30:47.420Z,97343.53
2022-07-30T00:33:54.365Z,97345.25
2022-07-30T00:36:55.933Z,97350.06
2022-07-30T00:39:57.477Z,97353.53
2022-07-30T00:42:58.961Z,97348.25
2022-07-30T00:46:00.537Z,97349.44
2022-07-30T00:49:02.251Z,97352.22
2022-07-30T00:52:04.001Z,97352.69
2022-07-30T00:55:08.203Z,97358.69
2022-07-30T00:58:09.721Z,97358.66
2022-07-30T01:01:11.544Z,97378.31
2022-07-30T01:04:13.082Z,97381.47
2022-07-30T01:07:15.979Z,97382.34
2022-07-30T01:10:18.002Z,97376.25
2022-07-30T01:13:19.492Z,97382.16
2022-07-30T01:16:21.823Z,97386.50
2022-07-30T01:19:46.836Z,97391.00
2022-07-30T01:22:57.590Z,97390.00
2022-07-30T01:26:04.121Z,97397.75
2022-07-30T01:29:06.055Z,97400.06
2022-07-30T01:32:10.746Z,97404.13
2022-07-30T01:35:14.408Z,97400.09
2022-07-30T01:38:21.803Z,97401.78
2022-07-30T01:41:24.014Z,97407.50
2022-07-30T01:44:28.460Z,97410.00
2022-07-30T01:47:33.037Z,97419.75
2022-07-30T01:50:36.559Z,97416.56
2022-07-30T01:53:41.607Z,97419.53
2022-07-30T01:56:46.007Z,97410.84
2022-07-30T01:59:50.482Z,97412.72
2022-07-30T02:02:54.288Z,97419.75
2022-07-30T02:06:00.703Z,97417.53
2022-07-30T02:09:10.564Z,97418.56
2022-07-30T02:12:36.548Z,97415.72
2022-07-30T02:15:48.917Z,97426.84
2022-07-30T02:19:07.778Z,97423.44
2022-07-30T02:22:15.496Z,97420.91
2022-07-30T02:25:21.308Z,97412.31
2022-07-30T02:28:26.184Z,97409.34
2022-07-30T02:31:31.297Z,97413.88
2022-07-30T02:34:37.517Z,97415.72
2022-07-30T02:37:43.588Z,97416.56
2022-07-30T02:40:47.429Z,97416.06
2022-07-30T02:43:51.148Z,97409.31
2022-07-30T02:46:56.029Z,97420.94
2022-07-30T02:50:05.430Z,97423.28
2022-07-30T02:53:09.747Z,97438.09
2022-07-30T02:56:12.537Z,97424.97
2022-07-30T02:59:15.299Z,97435.56
2022-07-30T03:02:17.356Z,97432.38
2022-07-30T03:05:31.203Z,97426.47
2022-07-30T03:08:35.070Z,97425.56
2022-07-30T03:11:37.262Z,97434.50
2022-07-30T03:14:39.458Z,97443.81
2022-07-30T03:17:44.647Z,97441.75
2022-07-30T03:20:49.983Z,97437.28
2022-07-30T03:23:54.753Z,97439.06
2022-07-30T03:26:57.685Z,97445.06
2022-07-30T03:30:02.391Z,97445.47
2022-07-30T03:33:06.048Z,97445.56
2022-07-30T03:36:09.775Z,97445.44
2022-07-30T03:39:12.404Z,97447.78
2022-07-30T03:42:15.911Z,97452.34
2022-07-30T03:45:18.805Z,97452.72
2022-07-30T03:48:20.741Z,97461.50
2022-07-30T03:51:23.003Z,97454.94
2022-07-30T03:54:25.467Z,97459.38
2022-07-30T03:57:53.244Z,97456.47
2022-07-30T04:01:00.451Z,97465.97
2022-07-30T04:04:10.782Z,97478.72
2022-07-30T04:07:14.363Z,97479.09
2022-07-30T04:10:16.644Z,97484.97
2022-07-30T04:13:40.897Z,97496.75
2022-07-30T04:17:05.749Z,97495.91
2022-07-30T04:20:18.032Z,97498.91
2022-07-30T04:23:20.209Z,97500.41
2022-07-30T04:26:22.719Z,97507.63
2022-07-30T04:29:24.959Z,97498.84
2022-07-30T04:32:28.637Z,97504.38
2022-07-30T04:35:59.049Z,97512.91
2022-07-30T04:39:06.652Z,97513.97
2022-07-30T04:42:08.339Z,97528.75
2022-07-30T04:45:11.571Z,97532.41
2022-07-30T04:48:29.045Z,97539.44
2022-07-30T04:51:42.315Z,97537.78
2022-07-30T04:55:02.156Z,97531.91
2022-07-30T04:58:05.408Z,97529.16
2022-07-30T05:01:10.416Z,97540.16
2022-07-30T05:04:13.588Z,97539.41
2022-07-30T05:07:18.563Z,97538.31
2022-07-30T05:10:24.063Z,97539.22
2022-07-30T05:13:34.064Z,97535.19
2022-07-30T05:16:36.143Z,97539.41
2022-07-30T05:19:37.888Z,97537.81
2022-07-30T05:22:39.616Z,97534.84
2022-07-30T05:25:45.256Z,97540.19
2022-07-30T05:28:56.632Z,97536.44
2022-07-30T05:32:05.621Z,97539.06
2022-07-30T05:35:10.032Z,97540.72
2022-07-30T05:38:11.563Z,97535.63
2022-07-30T05:41:33.419Z,97532.22
2022-07-30T05:45:13.289Z,97532.13
2022-07-30T05:48:16.004Z,97529.09
2022-07-30T05:51:19.650Z,97532.13
2022-07-30T05:54:21.127Z,97525.53
2022-07-30T05:58:01.270Z,97521.31
2022-07-30T06:01:03.733Z,97528.88
2022-07-30T06:04:06.484Z,97538.81
2022-07-30T06:07:16.711Z,97533.72
2022-07-30T06:10:18.285Z,97547.50
2022-07-30T06:13:19.771Z,97546.66
2022-07-30T06:16:21.303Z,97551.38
2022-07-30T06:19:23.429Z,97538.22
2022-07-30T06:22:26.202Z,97540.88
2022-07-30T06:25:28.897Z,97540.81
2022-07-30T06:28:38.958Z,97538.25
2022-07-30T06:31:49.544Z,97545.47
2022-07-30T06:34:59.705Z,97537.88
2022-07-30T06:38:07.400Z,97535.81
2022-07-30T06:41:17.214Z,97535.44
2022-07-30T06:44:31.925Z,97534.66
2022-07-30T06:47:59.937Z,97538.00
2022-07-30T06:51:04.414Z,97536.59
2022-07-30T06:54:05.917Z,97540.81
2022-07-30T06:57:30.462Z,97537.69
2022-07-30T07:00:32.826Z,97546.44
2022-07-30T07:03:40.676Z,97544.88
2022-07-30T07:06:43.047Z,97553.84
2022-07-30T07:09:48.030Z,97544.66
2022-07-30T07:13:08.019Z,97554.75
2022-07-30T07:16:10.006Z,97553.22
2022-07-30T07:19:14.890Z,97550.09
2022-07-30T07:22:36.839Z,97548.72
2022-07-30T07:25:38.540Z,97547.44
2022-07-30T07:28:40.772Z,97551.06
2022-07-30T07:32:06.839Z,97547.13
2022-07-30T07:35:05.487Z,97551.03
2022-07-30T07:38:09.017Z,97544.78
2022-07-30T07:41:10.497Z,97548.50
2022-07-30T07:44:11.998Z,97542.81
2022-07-30T07:47:14.608Z,97546.28
2022-07-30T07:50:21.972Z,97547.63
2022-07-30T07:53:23.521Z,97556.47
2022-07-30T07:56:25.871Z,97553.88
2022-07-30T07:59:36.096Z,97549.31
2022-07-30T08:02:44.478Z,97549.25
2022-07-30T08:05:58.057Z,97542.63
2022-07-30T08:09:26.093Z,97544.44
2022-07-30T08:13:06.372Z,97555.19
2022-07-30T08:16:26.773Z,97558.03
2022-07-30T08:19:46.841Z,97554.50
2022-07-30T08:22:54.043Z,97550.44
2022-07-30T08:26:00.674Z,97542.91
2022-07-30T08:29:02.807Z,97540.72
2022-07-30T08:32:05.186Z,97537.16
2022-07-30T08:35:09.513Z,97543.69
2022-07-30T08:38:12.904Z,97536.19
2022-07-30T08:41:18.966Z,97538.84
2022-07-30T08:44:21.908Z,97538.25
2022-07-30T08:47:32.473Z,97534.75
2022-07-30T08:50:46.454Z,97549.03
2022-07-30T08:54:08.319Z,97552.69
2022-07-30T08:57:11.833Z,97557.91
2022-07-30T09:00:17.465Z,97547.38
2022-07-30T09:03:19.443Z,97547.69
2022-07-30T09:06:22.204Z,97538.13
2022-07-30T09:09:23.991Z,97548.66
2022-07-30T09:12:39.249Z,97546.88
2022-07-30T09:15:40.831Z,97552.47
2022-07-30T09:18:44.313Z,97557.53
2022-07-30T09:21:59.113Z,97560.53
2022-07-30T09:25:41.639Z,97551.41
2022-07-30T09:29:22.924Z,97548.31
2022-07-30T09:32:55.961Z,97547.50
2022-07-30T09:36:01.001Z,97550.44
2022-07-30T09:39:30.167Z,97549.38
2022-07-30T09:43:01.862Z,97552.09
2022-07-30T09:46:04.864Z,97546.88
2022-07-30T09:49:33.114Z,97547.31
2022-07-30T09:52:35.104Z,97544.56
2022-07-30T09:55:42.162Z,97532.63
2022-07-30T09:58:45.632Z,97547.72
2022-07-30T10:01:56.311Z,97546.88
2022-07-30T10:05:37.939Z,97550.81
2022-07-30T10:08:40.573Z,97540.16
2022-07-30T10:11:42.602Z,97542.06
2022-07-30T10:14:46.984Z,97544.34
2022-07-30T10:17:51.954Z,97544.38
2022-07-30T10:21:12.694Z,97528.66
2022-07-30T10:24:37.755Z,97529.72
2022-07-30T10:27:57.703Z,97537.88
2022-07-30T10:31:47.163Z,97539.16
2022-07-30T10:34:26.177Z,97537.25
2022-07-30T10:37:30.873Z,97526.78
2022-07-30T10:40:39.669Z,97533.84
2022-07-30T10:44:25.014Z,97528.88
2022-07-30T10:47:34.505Z,97525.50
2022-07-30T10:50:53.483Z,97516.47
2022-07-30T10:53:55.645Z,97519.28
2022-07-30T10:57:15.136Z,97513.56
2022-07-30T11:00:25.885Z,97523.50
2022-07-30T11:03:41.602Z,97516.94
2022-07-30T11:06:46.738Z,97525.19
2022-07-30T11:10:05.024Z,97519.13
2022-07-30T11:13:11.034Z,97522.44
2022-07-30T11:16:12.556Z,97517.41
2022-07-30T11:19:56.662Z,97520.16
2022-07-30T11:22:46.927Z,97515.97
2022-07-30T11:25:54.787Z,97521.13
2022-07-30T11:28:56.645Z,97518.59
2022-07-30T11:32:26.606Z,97511.28
2022-07-30T11:35:34.652Z,97507.59
2022-07-30T11:38:54.395Z,97505.78
2022-07-30T11:42:23.752Z,97501.19
2022-07-30T11:45:29.210Z,97504.34
2022-07-30T11:48:32.044Z,97503.56
2022-07-30T11:51:45.123Z,97506.09
2022-07-30T11:54:51.446Z,97512.34
2022-07-30T11:57:54.383Z,97499.13
2022-07-30T12:00:58.220Z,97507.97
2022-07-30T12:04:06.379Z,97500.84
2022-07-30T12:07:07.912Z,97505.38
2022-07-30T12:10:14.530Z,97498.91
2022-07-30T12:13:17.825Z,97496.75
2022-07-30T12:16:19.285Z,97492.28
2022-07-30T12:19:20.878Z,97483.59
2022-07-30T12:22:22.389Z,97480.50
2022-07-30T12:25:23.999Z,97490.19
2022-07-30T12:28:31.295Z,97494.84
2022-07-30T12:31:33.791Z,97488.06
2022-07-30T12:34:35.487Z,97479.13
2022-07-30T12:37:37.940Z,97490.94
2022-07-30T12:41:05.622Z,97487.09
2022-07-30T12:44:07.089Z,97493.25
2022-07-30T12:47:21.962Z,97478.00
2022-07-30T12:50:23.900Z,97479.75
2022-07-30T12:53:30.027Z,97474.78
2022-07-30T12:56:31.872Z,97468.97
2022-07-30T12:59:34.761Z,97473.41
2022-07-30T13:02:36.361Z,97470.13
2022-07-30T13:05:50.135Z,97464.75
2022-07-30T13:08:59.258Z,97458.25
2022-07-30T13:12:01.139Z,97454.38
2022-07-30T13:15:03.699Z,97449.13
2022-07-30T13:18:05.873Z,97452.78
2022-07-30T13:21:09.278Z,97453.00
2022-07-30T13:24:12.111Z,97443.16
2022-07-30T13:27:19.892Z,97441.22
2022-07-30T13:30:21.533Z,97445.53
2022-07-30T13:33:23.221Z,97446.47
2022-07-30T13:36:24.785Z,97445.31
2022-07-30T13:39:26.313Z,97443.81
2022-07-30T13:42:27.904Z,97440.69
2022-07-30T13:45:29.585Z,97441.31
2022-07-30T13:48:32.255Z,97436.69
2022-07-30T13:51:34.155Z,97429.09
2022-07-30T13:54:35.730Z,97429.63
2022-07-30T13:57:37.349Z,97426.41
2022-07-30T14:00:40.799Z,97429.63
2022-07-30T14:03:47.101Z,97425.34
2022-07-30T14:06:50.914Z,97418.38
2022-07-30T14:09:54.665Z,97420.72
2022-07-30T14:12:57.062Z,97426.72
2022-07-30T14:15:58.853Z,97417.22
2022-07-30T14:19:00.831Z,97416.31
2022-07-30T14:22:02.387Z,97415.84
2022-07-30T14:25:04.188Z,97416.94
2022-07-30T14:28:05.633Z,97417.50
2022-07-30T14:31:07.262Z,97414.28
2022-07-30T14:34:10.097Z,97420.13
2022-07-30T14:37:14.227Z,97410.66
2022-07-30T14:40:16.425Z,97408.13
2022-07-30T14:43:19.468Z,97413.16
2022-07-30T14:46:20.963Z,97416.50
2022-07-30T14:49:24.333Z,97415.22
2022-07-30T14:52:26.773Z,97404.25
2022-07-30T14:55:28.347Z,97407.16
2022-07-30T14:58:30.022Z,97413.31
2022-07-30T15:01:31.581Z,97409.19
2022-07-30T15:04:34.698Z,97409.97
2022-07-30T15:07:38.798Z,97412.44
2022-07-30T15:10:40.378Z,97405.13
2022-07-30T15:13:50.620Z,97412.41
2022-07-30T15:16:53.062Z,97409.03
2022-07-30T15:19:54.491Z,97413.16
2022-07-30T15:22:55.949Z,97403.91
2022-07-30T15:25:57.562Z,97400.78
2022-07-30T15:28:59.027Z,97407.97
2022-07-30T15:32:01.207Z,97408.22
2022-07-30T15:35:03.901Z,97401.94
2022-07-30T15:38:05.413Z,97401.50
2022-07-30T15:41:10.363Z,97415.19
2022-07-30T15:44:14.775Z,97409.28
2022-07-30T15:47:16.583Z,97409.25
2022-07-30T15:50:18.152Z,97406.91
2022-07-30T15:53:19.670Z,97398.88
2022-07-30T15:56:21.231Z,97409.19
2022-07-30T15:59:22.730Z,97406.81
2022-07-30T16:02:24.446Z,97409.53
2022-07-30T16:05:26.181Z,97401.34
2022-07-30T16:08:48.056Z,97399.91
2022-07-30T16:11:49.908Z,97395.97
2022-07-30T16:14:52.033Z,97394.13
2022-07-30T16:17:53.529Z,97384.28
2022-07-30T16:20:58.460Z,97393.22
2022-07-30T16:24:00.041Z,97388.94
2022-07-30T16:27:01.586Z,97393.78
2022-07-30T16:30:03.844Z,97396.47
2022-07-30T16:33:05.299Z,97387.28
2022-07-30T16:36:07.258Z,97387.44
2022-07-30T16:39:09.085Z,97392.50
2022-07-30T16:42:11.834Z,97388.28
2022-07-30T16:45:13.414Z,97400.91
2022-07-30T16:48:15.057Z,97394.81
2022-07-30T16:51:16.580Z,97403.09
2022-07-30T16:54:18.057Z,97386.31
2022-07-30T16:57:19.519Z,97393.06
2022-07-30T17:00:21.049Z,97379.34
2022-07-30T17:03:22.518Z,97395.84
2022-07-30T17:06:24.025Z,97388.50
2022-07-30T17:09:25.490Z,97385.34
2022-07-30T17:12:27.595Z,97386.06
2022-07-30T17:15:31.983Z,97383.34
2022-07-30T17:18:34.545Z,97389.78
2022-07-30T17:21:36.379Z,97390.41
2022-07-30T17:24:38.147Z,97391.84
2022-07-30T17:27:39.719Z,97394.88
2022-07-30T17:30:41.263Z,97393.03
2022-07-30T17:33:42.717Z,97389.06
2022-07-30T17:36:52.752Z,97395.78
2022-07-30T17:40:04.079Z,97401.88
2022-07-30T17:43:16.291Z,97408.91
2022-07-30T17:46:17.811Z,97415.63
2022-07-30T17:49:19.378Z,97420.16
2022-07-30T17:52:25.989Z,97418.13
2022-07-30T17:55:28.347Z,97418.53
2022-07-30T17:58:29.850Z,97414.16
2022-07-30T18:01:31.446Z,97417.72
2022-07-30T18:04:34.090Z,97415.91
2022-07-30T18:07:35.679Z,97420.13
2022-07-30T18:10:37.142Z,97415.31
2022-07-30T18:13:38.701Z,97421.69
2022-07-30T18:16:40.259Z,97418.38
2022-07-30T18:19:41.914Z,97426.41
2022-07-30T18:22:44.484Z,97425.63
2022-07-30T18:25:51.254Z,97430.84
2022-07-30T18:28:54.643Z,97431.84
2022-07-30T18:31:56.776Z,97433.31
2022-07-30T18:34:58.238Z,97432.88
2022-07-30T18:38:00.039Z,97430.72
2022-07-30T18:41:02.782Z,97443.16
2022-07-30T18:44:04.600Z,97446.25
2022-07-30T18:47:06.472Z,97446.19
2022-07-30T18:50:08.714Z,97453.72
2022-07-30T18:53:15.527Z,97459.75
2022-07-30T18:56:17.356Z,97462.81
2022-07-30T18:59:18.870Z,97475.50
2022-07-30T19:02:20.363Z,97469.63
2022-07-30T19:05:21.961Z,97480.44
2022-07-30T19:08:23.465Z,97476.84
2022-07-30T19:11:24.937Z,97475.25
2022-07-30T19:14:26.422Z,97478.97
2022-07-30T19:17:46.143Z,97490.16
2022-07-30T19:20:50.512Z,97488.97
2022-07-30T19:23:52.126Z,97495.44
2022-07-30T19:26:53.846Z,97495.31
2022-07-30T19:29:55.413Z,97498.06
2022-07-30T19:33:13.960Z,97498.75
2022-07-30T19:36:20.540Z,97499.81
2022-07-30T19:39:22.207Z,97502.38
2022-07-30T19:42:23.810Z,97504.78
2022-07-30T19:45:27.473Z,97505.22
2022-07-30T19:48:49.264Z,97507.56
2022-07-30T19:52:10.169Z,97512.00
2022-07-30T19:55:30.998Z,97511.84
2022-07-30T19:58:36.641Z,97516.06
2022-07-30T20:01:40.539Z,97513.16
2022-07-30T20:04:43.658Z,97511.50
2022-07-30T20:07:45.812Z,97523.44
2022-07-30T20:10:47.865Z,97531.38
2022-07-30T20:13:49.661Z,97528.66
2022-07-30T20:16:51.310Z,97537.34
2022-07-30T20:19:54.128Z,97529.06
2022-07-30T20:22:59.579Z,97529.25
2022-07-30T20:26:04.357Z,97529.31
2022-07-30T20:29:18.891Z,97525.72
2022-07-30T20:32:22.859Z,97534.13
2022-07-30T20:35:26.359Z,97535.69
2022-07-30T20:38:29.410Z,97544.41
2022-07-30T20:41:31.361Z,97546.16
2022-07-30T20:44:37.130Z,97552.78
2022-07-30T20:47:39.134Z,97552.22
2022-07-30T20:50:43.637Z,97542.81
2022-07-30T20:53:45.816Z,97543.63
2022-07-30T20:56:47.695Z,97539.38
2022-07-30T20:59:50.487Z,97549.59
2022-07-30T21:02:56.548Z,97540.03
2022-07-30T21:05:58.037Z,97544.28
2022-07-30T21:09:01.325Z,97545.59
2022-07-30T21:12:03.422Z,97550.06
2022-07-30T21:15:11.761Z,97554.38
2022-07-30T21:18:26.535Z,97555.88
2022-07-30T21:21:30.616Z,97557.84
2022-07-30T21:24:43.378Z,97552.25
2022-07-30T21:27:45.070Z,97562.94
2022-07-30T21:30:49.889Z,97558.66
2022-07-30T21:33:51.374Z,97560.25
2022-07-30T21:36:52.863Z,97568.69
2022-07-30T21:39:54.511Z,97557.06
2022-07-30T21:42:56.396Z,97563.91
2022-07-30T21:45:59.259Z,97569.47
2022-07-30T21:49:00.780Z,97567.50
2022-07-30T21:52:03.068Z,97572.75
2022-07-30T21:55:05.425Z,97571.41
2022-07-30T21:58:07.178Z,97573.25
2022-07-30T22:01:25.355Z,97581.78
2022-07-30T22:04:27.366Z,97578.13
2022-07-30T22:07:28.939Z,97577.25
2022-07-30T22:10:30.501Z,97588.69
2022-07-30T22:13:32.653Z,97594.16
2022-07-30T22:16:34.787Z,97592.97
2022-07-30T22:19:36.415Z,97596.78
2022-07-30T22:22:38.797Z,97590.38
2022-07-30T22:25:43.949Z,97583.44
2022-07-30T22:28:46.839Z,97587.38
2022-07-30T22:31:54.205Z,97600.06
2022-07-30T22:34:55.922Z,97592.00
2022-07-30T22:37:59.122Z,97596.88
2022-07-30T22:41:02.485Z,97592.50
2022-07-30T22:44:03.924Z,97592.31
2022-07-30T22:47:20.931Z,97587.38
2022-07-30T22:50:26.245Z,97584.69
2022-07-30T22:54:02.676Z,97590.09
2022-07-30T22:56:50.685Z,97587.38
2022-07-30T23:00:00.306Z,97586.22
2022-07-30T23:03:02.574Z,97587.53
2022-07-30T23:06:04.107Z,97582.13
2022-07-30T23:09:07.963Z,97583.84
2022-07-30T23:12:12.542Z,97579.88
2022-07-30T23:15:17.014Z,97585.09
2022-07-30T23:18:18.476Z,97576.53
2022-07-30T23:21:20.656Z,97585.44
2022-07-30T23:24:22.167Z,97583.06
2022-07-30T23:27:23.799Z,97581.06
2022-07-30T23:30:25.325Z,97584.41
2022-07-30T23:33:33.641Z,97583.06
2022-07-30T23:36:35.170Z,97574.59
2022-07-30T23:39:36.702Z,97570.28
2022-07-30T23:42:38.261Z,97572.13
2022-07-30T23:45:40.694Z,97575.84
2022-07-30T23:48:42.222Z,97573.59
2022-07-30T23:51:44.295Z,97573.78
2022-07-30T23:54:45.798Z,97574.19
2022-07-30T23:57:47.246Z,97572.16
